createdAt,value
2019-04-25T00:00:43.106Z,63.06
2019-04-25T00:03:14.258Z,63.39
2019-04-25T00:05:45.054Z,62.80
2019-04-25T00:08:16.098Z,63.44
2019-04-25T00:10:47.611Z,63.61
2019-04-25T00:13:18.999Z,63.42
2019-04-25T00:15:49.922Z,63.77
2019-04-25T00:18:22.107Z,63.89
2019-04-25T00:20:57.592Z,63.93
2019-04-25T00:23:28.382Z,64.24
2019-04-25T00:26:16.010Z,64.21
2019-04-25T00:28:46.848Z,63.91
2019-04-25T00:31:17.602Z,64.27
2019-04-25T00:33:48.422Z,64.32
2019-04-25T00:36:19.170Z,64.42
2019-04-25T00:38:50.217Z,65.28
2019-04-25T00:41:22.485Z,65.17
2019-04-25T00:43:53.322Z,65.40
2019-04-25T00:46:24.131Z,65.71
2019-04-25T00:48:54.872Z,65.79
2019-04-25T00:51:25.604Z,66.07
2019-04-25T00:53:56.360Z,65.99
2019-04-25T00:56:27.502Z,66.25
2019-04-25T00:59:17.999Z,66.33
2019-04-25T01:02:07.656Z,66.51
2019-04-25T01:04:38.718Z,66.65
2019-04-25T01:07:09.652Z,66.73
2019-04-25T01:09:40.158Z,66.08
2019-04-25T01:12:11.675Z,65.72
2019-04-25T01:14:42.346Z,65.91
2019-04-25T01:17:13.094Z,66.41
2019-04-25T01:19:45.081Z,66.41
2019-04-25T01:22:17.536Z,66.22
2019-04-25T01:24:49.330Z,65.72
2019-04-25T01:27:20.540Z,66.23
2019-04-25T01:29:51.979Z,65.89
2019-04-25T01:32:24.562Z,66.55
2019-04-25T01:35:00.081Z,65.88
2019-04-25T01:37:37.095Z,66.06
2019-04-25T01:40:09.976Z,66.53
2019-04-25T01:42:58.936Z,66.34
2019-04-25T01:45:31.412Z,66.67
2019-04-25T01:48:03.492Z,67.16
2019-04-25T01:50:35.279Z,66.70
2019-04-25T01:53:06.010Z,66.50
2019-04-25T01:55:36.805Z,67.23
2019-04-25T01:58:07.749Z,67.35
2019-04-25T02:00:44.982Z,67.82
2019-04-25T02:03:16.364Z,68.96
2019-04-25T02:05:47.122Z,69.54
2019-04-25T02:08:18.036Z,70.44
2019-04-25T02:10:50.861Z,71.06
2019-04-25T02:13:23.693Z,70.61
2019-04-25T02:15:55.182Z,71.55
2019-04-25T02:18:27.036Z,72.03
2019-04-25T02:21:00.216Z,71.75
2019-04-25T02:23:30.341Z,71.41
2019-04-25T02:26:13.755Z,71.70
2019-04-25T02:28:33.884Z,72.04
2019-04-25T02:31:08.694Z,72.67
2019-04-25T02:33:37.376Z,72.73
2019-04-25T02:36:08.898Z,72.65
2019-04-25T02:38:39.970Z,72.66
2019-04-25T02:41:10.845Z,72.81
2019-04-25T02:43:41.687Z,73.01
2019-04-25T02:46:17.294Z,72.70
2019-04-25T02:49:09.166Z,72.69
2019-04-25T02:51:46.135Z,72.83
2019-04-25T02:54:16.962Z,72.85
2019-04-25T02:56:47.778Z,72.80
2019-04-25T02:59:18.722Z,72.57
2019-04-25T03:01:49.547Z,72.66
2019-04-25T03:04:19.957Z,72.71
2019-04-25T03:06:50.456Z,72.84
2019-04-25T03:09:21.253Z,73.18
2019-04-25T03:11:51.986Z,72.48
2019-04-25T03:14:26.409Z,72.75
2019-04-25T03:16:55.502Z,72.95
2019-04-25T03:19:30.761Z,72.66
2019-04-25T03:22:06.802Z,72.07
2019-04-25T03:24:35.786Z,71.85
2019-04-25T03:27:07.319Z,71.61
2019-04-25T03:29:38.379Z,71.83
2019-04-25T03:32:13.187Z,71.56
2019-04-25T03:34:43.385Z,71.50
2019-04-25T03:37:14.402Z,71.13
2019-04-25T03:39:45.236Z,70.74
2019-04-25T03:42:16.057Z,70.79
2019-04-25T03:44:47.015Z,70.61
2019-04-25T03:47:17.481Z,70.74
2019-04-25T03:49:48.259Z,70.92
2019-04-25T03:52:18.651Z,71.13
2019-04-25T03:54:49.439Z,71.24
2019-04-25T03:57:20.252Z,71.47
2019-04-25T03:59:51.065Z,71.29
2019-04-25T04:02:23.356Z,71.25
2019-04-25T04:04:54.504Z,71.26
2019-04-25T04:07:25.239Z,70.91
2019-04-25T04:09:56.071Z,71.18
2019-04-25T04:12:26.812Z,71.75
2019-04-25T04:14:57.743Z,71.93
2019-04-25T04:17:30.219Z,71.82
2019-04-25T04:20:03.950Z,71.66
2019-04-25T04:22:45.618Z,72.02
2019-04-25T04:25:21.170Z,72.09
2019-04-25T04:27:51.904Z,71.84
2019-04-25T04:30:24.157Z,72.31
2019-04-25T04:32:55.005Z,72.22
2019-04-25T04:35:25.819Z,72.65
2019-04-25T04:37:56.677Z,72.93
2019-04-25T04:40:27.627Z,72.80
2019-04-25T04:42:58.391Z,72.83
2019-04-25T04:45:28.848Z,73.03
2019-04-25T04:47:59.720Z,72.84
2019-04-25T04:50:30.176Z,72.93
2019-04-25T04:53:00.987Z,72.64
2019-04-25T04:55:31.717Z,72.81
2019-04-25T04:58:04.153Z,72.42
2019-04-25T05:00:35.431Z,71.88
2019-04-25T05:03:26.538Z,71.62
2019-04-25T05:05:58.254Z,71.26
2019-04-25T05:08:30.667Z,70.64
2019-04-25T05:11:01.437Z,70.37
2019-04-25T05:13:34.022Z,69.72
2019-04-25T05:16:04.951Z,69.44
2019-04-25T05:18:39.512Z,68.78
2019-04-25T05:21:08.340Z,68.57
2019-04-25T05:23:44.305Z,67.96
2019-04-25T05:26:16.324Z,67.59
2019-04-25T05:28:47.843Z,67.22
2019-04-25T05:31:23.994Z,66.95
2019-04-25T05:33:54.907Z,66.49
2019-04-25T05:36:27.429Z,66.49
2019-04-25T05:38:58.243Z,66.30
2019-04-25T05:41:30.722Z,65.99
2019-04-25T05:44:01.658Z,65.79
2019-04-25T05:46:34.041Z,65.78
2019-04-25T05:49:05.235Z,65.63
2019-04-25T05:51:36.219Z,65.35
2019-04-25T05:54:07.069Z,65.07
2019-04-25T05:56:37.905Z,64.49
2019-04-25T05:59:08.838Z,64.18
2019-04-25T06:01:39.291Z,63.40
2019-04-25T06:04:10.096Z,63.23
2019-04-25T06:06:40.927Z,62.61
2019-04-25T06:09:29.685Z,62.45
2019-04-25T06:12:03.053Z,62.99
2019-04-25T06:14:34.741Z,63.25
2019-04-25T06:17:10.402Z,62.92
2019-04-25T06:19:45.705Z,62.63
2019-04-25T06:22:43.529Z,62.51
2019-04-25T06:25:17.056Z,62.67
2019-04-25T06:27:56.415Z,63.22
2019-04-25T06:30:24.957Z,63.14
2019-04-25T06:32:56.177Z,63.40
2019-04-25T06:35:27.580Z,63.47
2019-04-25T06:37:58.555Z,63.29
2019-04-25T06:40:30.634Z,63.14
2019-04-25T06:43:03.263Z,63.60
2019-04-25T06:45:35.568Z,63.79
2019-04-25T06:48:10.817Z,63.57
2019-04-25T06:50:41.294Z,63.65
2019-04-25T06:53:13.602Z,63.09
2019-04-25T06:55:45.027Z,63.27
2019-04-25T06:58:16.004Z,63.26
2019-04-25T07:00:58.093Z,62.98
2019-04-25T07:03:19.314Z,62.70
2019-04-25T07:05:50.255Z,62.05
2019-04-25T07:08:21.106Z,61.71
2019-04-25T07:10:53.770Z,61.19
2019-04-25T07:13:25.595Z,61.01
2019-04-25T07:15:56.966Z,60.83
2019-04-25T07:18:32.391Z,59.84
2019-04-25T07:21:00.507Z,59.28
2019-04-25T07:23:33.421Z,59.15
2019-04-25T07:26:06.923Z,59.07
2019-04-25T07:28:41.834Z,58.81
2019-04-25T07:31:16.931Z,58.82
2019-04-25T07:33:58.220Z,58.47
2019-04-25T07:36:29.224Z,58.43
2019-04-25T07:39:09.817Z,57.61
2019-04-25T07:41:33.944Z,57.05
2019-04-25T07:44:04.948Z,56.89
2019-04-25T07:46:39.582Z,56.86
2019-04-25T07:49:08.424Z,57.64
2019-04-25T07:51:45.393Z,57.81
2019-04-25T07:54:16.395Z,57.60
2019-04-25T07:56:47.476Z,57.57
2019-04-25T07:59:18.344Z,57.84
2019-04-25T08:01:49.304Z,57.80
2019-04-25T08:04:25.008Z,57.96
2019-04-25T08:07:01.678Z,57.70
2019-04-25T08:09:35.759Z,57.81
2019-04-25T08:12:08.342Z,57.34
2019-04-25T08:14:41.376Z,57.89
2019-04-25T08:17:14.496Z,58.07
2019-04-25T08:19:45.560Z,57.61
2019-04-25T08:22:17.737Z,56.85
2019-04-25T08:25:08.098Z,56.98
2019-04-25T08:27:38.945Z,56.75
2019-04-25T08:30:10.341Z,55.96
2019-04-25T08:32:41.738Z,55.17
2019-04-25T08:35:16.101Z,54.96
2019-04-25T08:37:47.224Z,55.27
2019-04-25T08:40:18.306Z,54.97
2019-04-25T08:42:51.614Z,55.38
2019-04-25T08:45:24.342Z,53.95
2019-04-25T08:47:55.068Z,51.72
2019-04-25T08:50:33.226Z,50.97
2019-04-25T08:53:03.881Z,52.51
2019-04-25T08:55:54.032Z,52.64
2019-04-25T08:58:43.645Z,51.91
2019-04-25T09:01:32.428Z,51.94
2019-04-25T09:04:13.216Z,50.99
2019-04-25T09:06:44.340Z,51.27
2019-04-25T09:09:15.092Z,51.50
2019-04-25T09:11:46.878Z,51.97
2019-04-25T09:14:18.074Z,50.52
2019-04-25T09:16:48.916Z,50.22
2019-04-25T09:19:19.866Z,49.60
2019-04-25T09:21:50.691Z,50.01
2019-04-25T09:24:21.233Z,50.27
2019-04-25T09:26:53.920Z,51.38
2019-04-25T09:29:24.156Z,49.54
2019-04-25T09:31:54.978Z,49.52
2019-04-25T09:34:25.796Z,48.93
2019-04-25T09:36:56.279Z,48.88
2019-04-25T09:39:28.809Z,49.39
2019-04-25T09:41:59.739Z,48.93
2019-04-25T09:44:32.222Z,47.47
2019-04-25T09:47:03.533Z,47.69
2019-04-25T09:49:36.901Z,48.24
2019-04-25T09:52:10.015Z,48.36
2019-04-25T09:54:54.818Z,48.75
2019-04-25T09:57:33.643Z,49.55
2019-04-25T10:00:08.570Z,49.84
2019-04-25T10:02:39.113Z,50.19
2019-04-25T10:05:10.352Z,50.26
2019-04-25T10:07:41.175Z,49.85
2019-04-25T10:10:13.524Z,48.32
2019-04-25T10:12:44.237Z,48.33
2019-04-25T10:15:20.967Z,47.64
2019-04-25T10:17:51.913Z,47.33
2019-04-25T10:20:23.206Z,47.27
2019-04-25T10:22:54.492Z,46.03
2019-04-25T10:25:24.941Z,45.72
2019-04-25T10:27:56.944Z,43.75
2019-04-25T10:30:27.717Z,41.69
2019-04-25T10:32:58.547Z,40.63
2019-04-25T10:35:29.847Z,39.67
2019-04-25T10:38:00.534Z,40.26
2019-04-25T10:40:31.679Z,40.30
2019-04-25T10:43:04.000Z,41.76
2019-04-25T10:45:35.983Z,42.55
2019-04-25T10:48:06.951Z,40.70
2019-04-25T10:50:37.895Z,40.83
2019-04-25T10:53:08.729Z,40.16
2019-04-25T10:55:40.371Z,40.76
2019-04-25T10:58:12.039Z,40.80
2019-04-25T11:00:46.229Z,41.47
2019-04-25T11:03:35.119Z,41.97
2019-04-25T11:06:06.090Z,42.68
2019-04-25T11:08:36.991Z,43.40
2019-04-25T11:11:07.835Z,43.73
2019-04-25T11:13:38.691Z,41.33
2019-04-25T11:16:10.725Z,40.21
2019-04-25T11:18:41.869Z,41.04
2019-04-25T11:21:13.813Z,41.94
2019-04-25T11:23:47.676Z,41.58
2019-04-25T11:26:17.421Z,42.14
2019-04-25T11:29:00.161Z,41.65
2019-04-25T11:31:33.704Z,40.01
2019-04-25T11:34:05.547Z,38.04
2019-04-25T11:36:36.034Z,38.66
2019-04-25T11:39:27.301Z,39.02
2019-04-25T11:41:58.124Z,38.69
2019-04-25T11:44:29.505Z,39.54
2019-04-25T11:47:00.316Z,38.53
2019-04-25T11:49:31.345Z,37.67
2019-04-25T11:52:03.110Z,36.58
2019-04-25T11:54:34.765Z,36.93
2019-04-25T11:57:05.507Z,36.18
2019-04-25T11:59:36.547Z,36.06
2019-04-25T12:02:09.341Z,36.48
2019-04-25T12:04:40.361Z,37.30
2019-04-25T12:07:11.110Z,36.64
2019-04-25T12:09:43.144Z,35.96
2019-04-25T12:12:14.743Z,35.62
2019-04-25T12:14:46.399Z,35.08
2019-04-25T12:17:17.731Z,35.83
2019-04-25T12:19:49.082Z,35.73
2019-04-25T12:22:20.011Z,34.98
2019-04-25T12:24:50.851Z,35.06
2019-04-25T12:27:21.794Z,34.86
2019-04-25T12:29:52.631Z,35.07
2019-04-25T12:32:23.455Z,33.84
2019-04-25T12:34:54.311Z,34.20
2019-04-25T12:37:25.575Z,35.17
2019-04-25T12:39:56.385Z,36.46
2019-04-25T12:42:26.799Z,35.71
2019-04-25T12:44:59.491Z,34.97
2019-04-25T12:47:40.677Z,34.08
2019-04-25T12:50:11.717Z,34.56
2019-04-25T12:52:43.282Z,35.21
2019-04-25T12:55:14.715Z,34.98
2019-04-25T12:57:45.451Z,34.01
2019-04-25T13:00:18.032Z,33.87
2019-04-25T13:02:48.778Z,34.71
2019-04-25T13:05:19.604Z,34.08
2019-04-25T13:07:51.456Z,34.71
2019-04-25T13:10:23.632Z,35.36
2019-04-25T13:12:55.508Z,35.39
2019-04-25T13:15:27.022Z,34.28
2019-04-25T13:17:58.379Z,33.39
2019-04-25T13:20:29.225Z,33.88
2019-04-25T13:23:00.563Z,32.70
2019-04-25T13:25:31.620Z,33.12
2019-04-25T13:28:06.768Z,33.39
2019-04-25T13:31:04.034Z,34.08
2019-04-25T13:33:45.084Z,34.87
2019-04-25T13:36:17.590Z,34.70
2019-04-25T13:38:48.487Z,34.15
2019-04-25T13:41:19.677Z,34.39
2019-04-25T13:43:50.368Z,33.89
2019-04-25T13:46:24.338Z,33.85
2019-04-25T13:48:54.383Z,34.09
2019-04-25T13:51:26.171Z,34.78
2019-04-25T13:53:57.004Z,34.62
2019-04-25T13:56:28.712Z,34.32
2019-04-25T13:58:59.789Z,34.74
2019-04-25T14:01:31.780Z,33.32
2019-04-25T14:04:04.356Z,33.46
2019-04-25T14:06:35.592Z,33.81
2019-04-25T14:09:09.003Z,33.22
2019-04-25T14:11:39.903Z,33.46
2019-04-25T14:14:10.758Z,33.84
2019-04-25T14:16:46.120Z,34.59
2019-04-25T14:19:18.508Z,34.38
2019-04-25T14:21:49.227Z,34.17
2019-04-25T14:24:22.758Z,34.59
2019-04-25T14:26:52.637Z,34.15
2019-04-25T14:29:23.778Z,34.40
2019-04-25T14:31:54.926Z,34.41
2019-04-25T14:34:26.485Z,33.37
2019-04-25T14:36:57.133Z,33.99
2019-04-25T14:39:27.784Z,33.99
2019-04-25T14:41:58.216Z,33.86
2019-04-25T14:44:29.009Z,33.29
2019-04-25T14:46:59.682Z,33.92
2019-04-25T14:49:30.591Z,33.02
2019-04-25T14:52:01.518Z,33.78
2019-04-25T14:54:37.058Z,34.02
2019-04-25T14:57:09.414Z,33.39
2019-04-25T14:59:40.160Z,32.87
2019-04-25T15:02:10.886Z,32.88
2019-04-25T15:04:41.618Z,33.30
2019-04-25T15:07:12.017Z,32.88
2019-04-25T15:09:42.894Z,32.91
2019-04-25T15:12:13.830Z,33.96
2019-04-25T15:14:44.571Z,33.40
2019-04-25T15:17:15.392Z,32.95
2019-04-25T15:19:46.228Z,33.09
2019-04-25T15:22:16.924Z,32.75
2019-04-25T15:24:47.811Z,33.24
2019-04-25T15:27:19.184Z,33.65
2019-04-25T15:29:50.202Z,33.02
2019-04-25T15:32:22.571Z,32.88
2019-04-25T15:34:55.047Z,33.43
2019-04-25T15:37:43.811Z,33.30
2019-04-25T15:40:16.488Z,33.16
2019-04-25T15:43:05.266Z,33.16
2019-04-25T15:45:43.756Z,32.75
2019-04-25T15:48:14.684Z,32.79
2019-04-25T15:50:45.523Z,33.30
2019-04-25T15:53:16.476Z,33.72
2019-04-25T15:55:47.231Z,33.38
2019-04-25T15:58:18.154Z,32.75
2019-04-25T16:00:48.986Z,32.61
2019-04-25T16:03:19.726Z,33.31
2019-04-25T16:05:50.447Z,33.31
2019-04-25T16:08:21.186Z,33.20
2019-04-25T16:10:52.022Z,33.48
2019-04-25T16:13:22.555Z,33.79
2019-04-25T16:15:53.288Z,32.89
2019-04-25T16:18:23.778Z,33.24
2019-04-25T16:20:54.660Z,33.02
2019-04-25T16:23:25.389Z,32.89
2019-04-25T16:25:56.117Z,32.75
2019-04-25T16:28:27.634Z,33.17
2019-04-25T16:30:58.739Z,33.31
2019-04-25T16:33:30.472Z,32.85
2019-04-25T16:36:01.822Z,32.82
2019-04-25T16:38:33.362Z,32.45
2019-04-25T16:41:05.128Z,32.41
2019-04-25T16:43:37.291Z,32.76
2019-04-25T16:46:08.049Z,32.41
2019-04-25T16:48:39.226Z,32.44
2019-04-25T16:51:10.541Z,33.03
2019-04-25T16:53:40.993Z,33.45
2019-04-25T16:56:12.214Z,33.70
2019-04-25T16:58:42.599Z,33.58
2019-04-25T17:01:14.284Z,33.38
2019-04-25T17:03:45.500Z,33.62
2019-04-25T17:06:16.392Z,33.52
2019-04-25T17:08:47.093Z,33.73
2019-04-25T17:11:18.361Z,33.03
2019-04-25T17:13:57.204Z,33.22
2019-04-25T17:16:30.599Z,33.26
2019-04-25T17:19:06.131Z,33.60
2019-04-25T17:21:37.517Z,33.68
2019-04-25T17:24:08.906Z,34.09
2019-04-25T17:26:39.767Z,34.24
2019-04-25T17:29:12.227Z,34.17
2019-04-25T17:31:45.285Z,34.17
2019-04-25T17:34:18.229Z,34.11
2019-04-25T17:36:53.337Z,34.22
2019-04-25T17:39:26.011Z,34.22
2019-04-25T17:41:56.873Z,34.69
2019-04-25T17:44:27.602Z,34.48
2019-04-25T17:47:06.250Z,34.75
2019-04-25T17:49:32.746Z,34.86
2019-04-25T17:52:03.887Z,34.95
2019-04-25T17:54:34.746Z,35.05
2019-04-25T17:57:05.493Z,34.98
2019-04-25T17:59:36.902Z,35.28
2019-04-25T18:02:08.363Z,35.41
2019-04-25T18:04:40.225Z,35.79
2019-04-25T18:07:11.269Z,35.75
2019-04-25T18:09:42.308Z,35.98
2019-04-25T18:12:13.825Z,36.14
2019-04-25T18:14:46.631Z,36.41
2019-04-25T18:17:17.621Z,36.61
2019-04-25T18:19:57.513Z,36.50
2019-04-25T18:22:37.804Z,36.77
2019-04-25T18:25:16.617Z,36.97
2019-04-25T18:28:12.547Z,37.03
2019-04-25T18:30:47.212Z,37.00
2019-04-25T18:33:22.600Z,37.20
2019-04-25T18:35:55.095Z,37.40
2019-04-25T18:38:44.138Z,37.33
2019-04-25T18:41:18.840Z,37.59
2019-04-25T18:43:59.817Z,37.76
2019-04-25T18:46:32.342Z,37.92
2019-04-25T18:49:03.189Z,38.05
2019-04-25T18:51:34.040Z,38.12
2019-04-25T18:54:15.918Z,38.32
2019-04-25T18:56:48.493Z,38.25
2019-04-25T18:59:23.746Z,38.37
2019-04-25T19:02:05.013Z,38.64
2019-04-25T19:04:38.295Z,38.64
2019-04-25T19:07:09.267Z,38.80
2019-04-25T19:09:40.755Z,38.80
2019-04-25T19:12:11.742Z,38.97
2019-04-25T19:14:43.130Z,38.90
2019-04-25T19:17:14.561Z,38.93
2019-04-25T19:19:45.651Z,39.09
2019-04-25T19:22:16.517Z,39.12
2019-04-25T19:24:47.709Z,39.09
2019-04-25T19:27:23.990Z,39.08
2019-04-25T19:29:53.264Z,39.08
2019-04-25T19:32:25.137Z,39.24
2019-04-25T19:34:56.065Z,39.14
2019-04-25T19:37:26.901Z,39.21
2019-04-25T19:40:15.820Z,39.41
2019-04-25T19:42:51.389Z,39.33
2019-04-25T19:45:22.203Z,39.30
2019-04-25T19:47:53.057Z,39.30
2019-04-25T19:50:23.883Z,39.33
2019-04-25T19:52:54.460Z,39.26
2019-04-25T19:55:25.249Z,39.25
2019-04-25T19:57:55.973Z,39.06
2019-04-25T20:00:26.726Z,39.12
2019-04-25T20:03:05.279Z,39.28
2019-04-25T20:05:52.537Z,39.15
2019-04-25T20:08:25.339Z,39.11
2019-04-25T20:10:57.918Z,38.97
2019-04-25T20:13:28.850Z,38.74
2019-04-25T20:15:59.641Z,38.83
2019-04-25T20:18:30.438Z,38.97
2019-04-25T20:21:01.264Z,38.96
2019-04-25T20:23:32.192Z,38.96
2019-04-25T20:26:03.292Z,38.96
2019-04-25T20:28:34.124Z,39.06
2019-04-25T20:31:04.593Z,39.22
2019-04-25T20:33:35.328Z,39.22
2019-04-25T20:36:17.286Z,39.28
2019-04-25T20:38:38.657Z,39.35
2019-04-25T20:41:09.574Z,39.44
2019-04-25T20:43:53.746Z,39.41
2019-04-25T20:46:19.684Z,39.07
2019-04-25T20:48:50.498Z,39.07
2019-04-25T20:51:21.231Z,38.80
2019-04-25T20:53:52.835Z,38.70
2019-04-25T20:56:23.734Z,38.86
2019-04-25T20:58:55.585Z,38.80
2019-04-25T21:01:26.630Z,39.00
2019-04-25T21:03:57.050Z,39.00
2019-04-25T21:06:29.534Z,39.13
2019-04-25T21:08:59.962Z,39.20
2019-04-25T21:11:31.322Z,39.36
2019-04-25T21:14:03.694Z,39.39
2019-04-25T21:16:48.046Z,39.45
2019-04-25T21:19:29.030Z,39.48
2019-04-25T21:22:00.991Z,39.45
2019-04-25T21:24:31.912Z,39.62
2019-04-25T21:27:03.523Z,39.72
2019-04-25T21:29:34.444Z,39.81
2019-04-25T21:32:05.362Z,40.04
2019-04-25T21:34:36.192Z,40.04
2019-04-25T21:37:07.424Z,40.07
2019-04-25T21:39:52.799Z,40.04
2019-04-25T21:42:29.278Z,40.23
2019-04-25T21:45:00.519Z,40.33
2019-04-25T21:47:30.995Z,40.49
2019-04-25T21:50:02.841Z,40.37
2019-04-25T21:52:34.181Z,40.56
2019-04-25T21:55:06.131Z,40.72
2019-04-25T21:57:37.268Z,40.82
2019-04-25T22:00:13.528Z,40.85
2019-04-25T22:02:44.846Z,40.81
2019-04-25T22:05:16.018Z,40.94
2019-04-25T22:07:47.254Z,41.07
2019-04-25T22:10:18.510Z,41.07
2019-04-25T22:12:49.348Z,41.17
2019-04-25T22:15:20.386Z,41.13
2019-04-25T22:17:51.228Z,41.19
2019-04-25T22:20:22.064Z,41.39
2019-04-25T22:22:52.634Z,41.52
2019-04-25T22:25:23.539Z,41.55
2019-04-25T22:27:55.284Z,41.75
2019-04-25T22:30:26.228Z,41.95
2019-04-25T22:33:05.670Z,42.04
2019-04-25T22:35:37.828Z,42.37
2019-04-25T22:38:09.064Z,42.41
2019-04-25T22:40:39.908Z,42.70
2019-04-25T22:43:12.003Z,42.83
2019-04-25T22:45:43.120Z,42.96
2019-04-25T22:48:13.878Z,43.13
2019-04-25T22:50:45.098Z,43.26
2019-04-25T22:53:21.771Z,43.39
2019-04-25T22:55:48.619Z,43.42
2019-04-25T22:58:19.448Z,43.62
2019-04-25T23:00:50.190Z,43.75
2019-04-25T23:03:25.418Z,43.72
2019-04-25T23:05:58.108Z,43.88
2019-04-25T23:08:29.248Z,44.14
2019-04-25T23:11:00.078Z,44.20
2019-04-25T23:13:30.570Z,44.33
2019-04-25T23:16:02.475Z,44.52
2019-04-25T23:18:33.724Z,44.59
2019-04-25T23:21:05.695Z,44.78
2019-04-25T23:23:37.166Z,44.94
2019-04-25T23:26:21.806Z,45.10
2019-04-25T23:28:54.688Z,45.23
2019-04-25T23:31:30.028Z,45.42
2019-04-25T23:34:00.901Z,45.61
2019-04-25T23:36:31.810Z,45.83
2019-04-25T23:39:06.376Z,46.02
2019-04-25T23:41:38.700Z,46.18
2019-04-25T23:44:12.216Z,46.38
2019-04-25T23:46:43.339Z,46.35
2019-04-25T23:49:14.785Z,46.57
2019-04-25T23:51:47.498Z,46.75
2019-04-25T23:54:18.734Z,46.67
2019-04-25T23:56:49.542Z,46.95
2019-04-25T23:59:20.302Z,47.11
